createdAt,value
2022-08-14T00:01:56.662Z,102056.34
2022-08-14T00:04:34.436Z,102060.91
2022-08-14T00:07:10.225Z,102066.38
2022-08-14T00:09:55.825Z,102077.19
2022-08-14T00:12:48.065Z,102083.44
2022-08-14T00:15:18.471Z,102087.84
2022-08-14T00:17:47.848Z,102095.91
2022-08-14T00:20:31.015Z,102097.16
2022-08-14T00:23:12.595Z,102115.59
2022-08-14T00:25:53.820Z,102105.78
2022-08-14T00:28:32.809Z,102117.78
2022-08-14T00:31:02.819Z,102129.41
2022-08-14T00:33:52.330Z,102130.13
2022-08-14T00:36:35.425Z,102136.63
2022-08-14T00:39:09.642Z,102142.03
2022-08-14T00:41:39.020Z,102145.84
2022-08-14T00:44:08.158Z,102146.03
2022-08-14T00:46:37.157Z,102156.56
2022-08-14T00:49:04.897Z,102164.50
2022-08-14T00:51:37.667Z,102175.00
2022-08-14T00:54:17.102Z,102176.78
2022-08-14T00:56:55.687Z,102171.59
2022-08-14T00:59:25.247Z,102169.94
2022-08-14T01:01:58.237Z,102166.34
2022-08-14T01:04:51.618Z,102167.41
2022-08-14T01:07:20.989Z,102168.72
2022-08-14T01:10:01.857Z,102176.97
2022-08-14T01:12:30.515Z,102179.94
2022-08-14T01:14:59.460Z,102183.91
2022-08-14T01:17:49.980Z,102184.22
2022-08-14T01:20:40.080Z,102201.22
2022-08-14T01:23:16.640Z,102206.75
2022-08-14T01:25:51.544Z,102225.38
2022-08-14T01:28:46.162Z,102236.81
2022-08-14T01:31:12.497Z,102245.25
2022-08-14T01:34:00.141Z,102248.69
2022-08-14T01:36:36.709Z,102259.16
2022-08-14T01:39:23.886Z,102257.28
2022-08-14T01:41:58.554Z,102266.13
2022-08-14T01:44:32.881Z,102261.88
2022-08-14T01:47:05.794Z,102284.69
2022-08-14T01:49:35.358Z,102282.81
2022-08-14T01:52:03.702Z,102291.53
2022-08-14T01:54:38.142Z,102297.81
2022-08-14T01:57:11.613Z,102297.09
2022-08-14T01:59:41.109Z,102306.59
2022-08-14T02:02:19.021Z,102296.00
2022-08-14T02:04:57.110Z,102298.47
2022-08-14T02:07:34.330Z,102291.47
2022-08-14T02:10:15.953Z,102280.31
2022-08-14T02:12:54.117Z,102278.56
2022-08-14T02:15:25.778Z,102290.66
2022-08-14T02:17:53.330Z,102294.94
2022-08-14T02:20:23.846Z,102294.13
2022-08-14T02:22:55.063Z,102297.50
2022-08-14T02:25:22.529Z,102296.78
2022-08-14T02:28:23.107Z,102303.97
2022-08-14T02:30:43.268Z,102303.25
2022-08-14T02:33:12.340Z,102306.13
2022-08-14T02:35:43.462Z,102307.19
2022-08-14T02:38:11.919Z,102306.53
2022-08-14T02:40:59.998Z,102325.34
2022-08-14T02:43:37.346Z,102319.50
2022-08-14T02:46:20.475Z,102334.78
2022-08-14T02:49:01.918Z,102357.94
2022-08-14T02:51:33.709Z,102371.31
2022-08-14T02:54:03.697Z,102377.72
2022-08-14T02:57:16.345Z,102390.06
2022-08-14T02:59:19.117Z,102398.72
2022-08-14T03:01:51.054Z,102411.91
2022-08-14T03:04:21.780Z,102417.91
2022-08-14T03:06:57.951Z,102409.91
2022-08-14T03:09:42.358Z,102415.06
2022-08-14T03:12:31.550Z,102412.44
2022-08-14T03:15:03.143Z,102409.97
2022-08-14T03:17:40.757Z,102403.97
2022-08-14T03:20:19.079Z,102408.69
2022-08-14T03:22:49.861Z,102412.16
2022-08-14T03:25:17.858Z,102419.41
2022-08-14T03:27:48.228Z,102419.31
2022-08-14T03:30:39.224Z,102418.53
2022-08-14T03:33:11.548Z,102415.00
2022-08-14T03:36:07.593Z,102410.72
2022-08-14T03:39:15.880Z,102412.53
2022-08-14T03:41:16.914Z,102420.50
2022-08-14T03:43:44.545Z,102423.22
2022-08-14T03:46:38.758Z,102423.34
2022-08-14T03:49:02.944Z,102421.56
2022-08-14T03:51:30.053Z,102427.06
2022-08-14T03:53:59.477Z,102436.19
2022-08-14T03:56:30.067Z,102439.94
2022-08-14T03:59:02.339Z,102448.03
2022-08-14T04:01:38.919Z,102455.97
2022-08-14T04:04:07.964Z,102469.25
2022-08-14T04:06:47.489Z,102475.56
2022-08-14T04:09:14.651Z,102472.13
2022-08-14T04:11:43.747Z,102482.69
2022-08-14T04:14:10.730Z,102492.47
2022-08-14T04:16:47.378Z,102491.69
2022-08-14T04:19:17.390Z,102493.56
2022-08-14T04:22:02.104Z,102487.50
2022-08-14T04:24:38.523Z,102491.06
2022-08-14T04:27:09.442Z,102501.53
2022-08-14T04:29:42.550Z,102507.50
2022-08-14T04:33:02.566Z,102488.78
2022-08-14T04:34:57.956Z,102481.69
2022-08-14T04:37:45.472Z,102473.59
2022-08-14T04:40:32.777Z,102473.34
2022-08-14T04:43:20.795Z,102491.13
2022-08-14T04:45:51.381Z,102481.44
2022-08-14T04:48:39.792Z,102471.66
2022-08-14T04:51:13.868Z,102474.16
2022-08-14T04:53:44.530Z,102454.31
2022-08-14T04:56:30.456Z,102452.00
2022-08-14T04:59:09.993Z,102399.38
2022-08-14T05:01:49.120Z,102325.88
2022-08-14T05:04:20.795Z,102273.63
2022-08-14T05:06:49.613Z,102216.38
2022-08-14T05:09:20.609Z,102182.44
2022-08-14T05:11:49.862Z,102150.41
2022-08-14T05:14:45.837Z,102120.16
2022-08-14T05:17:10.864Z,102061.34
2022-08-14T05:19:45.060Z,102023.94
2022-08-14T05:22:27.059Z,101996.34
2022-08-14T05:24:54.178Z,101937.69
2022-08-14T05:27:22.604Z,101924.03
2022-08-14T05:29:56.900Z,101878.72
2022-08-14T05:32:27.722Z,101852.38
2022-08-14T05:34:59.549Z,101819.44
2022-08-14T05:37:29.545Z,101800.28
2022-08-14T05:39:58.424Z,101787.72
2022-08-14T05:42:26.968Z,101757.25
2022-08-14T05:44:56.174Z,101721.72
2022-08-14T05:47:23.782Z,101687.84
2022-08-14T05:49:51.590Z,101672.84
2022-08-14T05:52:38.672Z,101659.56
2022-08-14T05:55:08.575Z,101635.91
2022-08-14T05:57:49.540Z,101627.31
2022-08-14T06:00:28.192Z,101623.13
2022-08-14T06:02:56.311Z,101609.19
2022-08-14T06:05:24.188Z,101602.50
2022-08-14T06:07:57.337Z,101575.31
2022-08-14T06:10:24.646Z,101544.28
2022-08-14T06:12:56.820Z,101508.38
2022-08-14T06:15:29.610Z,101493.66
2022-08-14T06:17:59.635Z,101467.41
2022-08-14T06:20:28.180Z,101438.75
2022-08-14T06:22:56.461Z,101413.63
2022-08-14T06:25:25.037Z,101388.81
2022-08-14T06:27:53.437Z,101392.34
2022-08-14T06:30:24.005Z,101377.59
2022-08-14T06:32:57.892Z,101361.09
2022-08-14T06:35:24.708Z,101355.91
2022-08-14T06:38:00.431Z,101347.56
2022-08-14T06:40:36.465Z,101331.00
2022-08-14T06:43:09.724Z,101327.44
2022-08-14T06:45:38.920Z,101325.59
2022-08-14T06:48:17.904Z,101317.88
2022-08-14T06:50:46.699Z,101318.91
2022-08-14T06:53:14.703Z,101304.53
2022-08-14T06:55:58.022Z,101311.38
2022-08-14T06:58:29.262Z,101298.75
2022-08-14T07:01:23.143Z,101293.34
2022-08-14T07:04:12.792Z,101296.41
2022-08-14T07:06:50.370Z,101289.47
2022-08-14T07:09:22.470Z,101283.72
2022-08-14T07:11:51.766Z,101285.16
2022-08-14T07:14:18.753Z,101287.59
2022-08-14T07:16:45.651Z,101276.38
2022-08-14T07:19:12.548Z,101288.84
2022-08-14T07:21:39.701Z,101289.31
2022-08-14T07:24:09.540Z,101290.25
2022-08-14T07:26:48.417Z,101278.84
2022-08-14T07:29:15.240Z,101282.91
2022-08-14T07:31:44.701Z,101280.66
2022-08-14T07:34:13.451Z,101275.00
2022-08-14T07:37:01.489Z,101273.91
2022-08-14T07:39:28.528Z,101281.69
2022-08-14T07:41:55.382Z,101275.50
2022-08-14T07:44:32.141Z,101277.78
2022-08-14T07:47:00.695Z,101276.28
2022-08-14T07:49:28.735Z,101276.44
2022-08-14T07:51:56.767Z,101280.84
2022-08-14T07:54:29.976Z,101263.03
2022-08-14T07:57:12.312Z,101267.38
2022-08-14T07:59:48.372Z,101267.34
2022-08-14T08:02:19.257Z,101269.22
2022-08-14T08:04:50.469Z,101259.28
2022-08-14T08:07:21.799Z,101263.09
2022-08-14T08:09:56.365Z,101259.09
2022-08-14T08:12:30.061Z,101257.56
2022-08-14T08:15:05.484Z,101259.91
2022-08-14T08:17:38.762Z,101256.41
2022-08-14T08:20:15.717Z,101256.00
2022-08-14T08:22:48.102Z,101255.41
2022-08-14T08:25:18.163Z,101244.00
2022-08-14T08:28:08.147Z,101251.59
2022-08-14T08:30:49.613Z,101246.88
2022-08-14T08:33:18.532Z,101245.94
2022-08-14T08:35:50.271Z,101248.84
2022-08-14T08:39:18.490Z,101250.28
2022-08-14T08:41:11.922Z,101244.25
2022-08-14T08:43:46.357Z,101240.31
2022-08-14T08:46:23.731Z,101234.66
2022-08-14T08:51:33.371Z,101240.84
2022-08-14T08:54:06.251Z,101229.75
2022-08-14T08:56:39.852Z,101230.13
2022-08-14T08:59:27.062Z,101230.69
2022-08-14T09:02:03.976Z,101228.56
2022-08-14T09:04:45.768Z,101217.78
2022-08-14T09:07:30.548Z,101215.63
2022-08-14T09:10:00.011Z,101213.78
2022-08-14T09:12:29.826Z,101197.81
2022-08-14T09:15:01.777Z,101192.72
2022-08-14T09:17:28.980Z,101199.00
2022-08-14T09:19:56.062Z,101199.91
2022-08-14T09:22:36.101Z,101205.34
2022-08-14T09:25:07.619Z,101193.78
2022-08-14T09:27:36.648Z,101186.50
2022-08-14T09:30:31.015Z,101194.72
2022-08-14T09:33:16.107Z,101181.81
2022-08-14T09:36:14.800Z,101179.50
2022-08-14T09:38:58.902Z,101164.88
2022-08-14T09:42:21.650Z,101164.38
2022-08-14T09:45:08.373Z,101159.28
2022-08-14T09:47:56.263Z,101157.03
2022-08-14T09:50:51.401Z,101145.13
2022-08-14T09:54:13.441Z,101159.72
2022-08-14T09:56:31.876Z,101147.09
2022-08-14T09:59:15.341Z,101155.53
2022-08-14T10:01:46.109Z,101166.56
2022-08-14T10:04:33.704Z,101159.50
2022-08-14T10:07:03.747Z,101157.75
2022-08-14T10:09:33.486Z,101157.09
2022-08-14T10:12:04.287Z,101152.88
2022-08-14T10:14:35.943Z,101155.41
2022-08-14T10:17:08.440Z,101143.19
2022-08-14T10:19:46.892Z,101145.53
2022-08-14T10:23:21.944Z,101128.97
2022-08-14T10:25:17.412Z,101121.91
2022-08-14T10:27:50.139Z,101119.13
2022-08-14T10:30:25.542Z,101105.53
2022-08-14T10:32:55.523Z,101099.00
2022-08-14T10:35:30.876Z,101100.75
2022-08-14T10:38:00.863Z,101095.13
2022-08-14T10:40:37.696Z,101103.47
2022-08-14T10:43:23.957Z,101084.41
2022-08-14T10:47:37.388Z,101087.22
2022-08-14T10:49:04.469Z,101087.81
2022-08-14T10:51:39.689Z,101080.69
2022-08-14T10:54:26.060Z,101085.47
2022-08-14T10:57:22.448Z,101078.72
2022-08-14T10:59:59.741Z,101083.63
2022-08-14T11:02:45.067Z,101076.09
2022-08-14T11:05:19.399Z,101071.22
2022-08-14T11:07:56.514Z,101071.22
2022-08-14T11:10:48.468Z,101067.97
2022-08-14T11:13:30.066Z,101066.44
2022-08-14T11:16:02.005Z,101036.47
2022-08-14T11:18:35.788Z,101045.31
2022-08-14T11:21:06.511Z,101051.94
2022-08-14T11:23:38.217Z,101048.59
2022-08-14T11:26:08.749Z,101044.06
2022-08-14T11:28:47.032Z,101036.78
2022-08-14T11:31:20.205Z,101037.66
2022-08-14T11:33:57.811Z,101038.03
2022-08-14T11:36:56.900Z,101021.50
2022-08-14T11:39:35.030Z,101029.97
2022-08-14T11:42:57.848Z,101023.38
2022-08-14T11:45:03.397Z,101011.28
2022-08-14T11:47:43.909Z,101005.16
2022-08-14T11:50:36.736Z,101000.03
2022-08-14T11:53:07.126Z,101014.78
2022-08-14T11:55:38.462Z,101001.00
2022-08-14T11:58:11.346Z,100999.81
2022-08-14T12:00:53.982Z,100995.97
2022-08-14T12:03:37.199Z,101002.22
2022-08-14T12:06:29.489Z,100993.22
2022-08-14T12:09:00.077Z,100999.34
2022-08-14T12:11:43.485Z,100995.16
2022-08-14T12:14:13.282Z,100980.56
2022-08-14T12:17:12.785Z,100977.72
2022-08-14T12:19:51.255Z,100978.97
2022-08-14T12:22:43.129Z,100982.53
2022-08-14T12:25:14.113Z,100976.25
2022-08-14T12:27:52.504Z,100970.75
2022-08-14T12:30:43.161Z,100962.91
2022-08-14T12:33:30.912Z,100974.56
2022-08-14T12:36:04.421Z,100963.88
2022-08-14T12:38:35.863Z,100967.22
2022-08-14T12:41:06.436Z,100969.09
2022-08-14T12:43:46.158Z,100966.16
2022-08-14T12:46:28.322Z,100947.19
2022-08-14T12:49:03.909Z,100939.50
2022-08-14T12:51:31.382Z,100937.06
2022-08-14T12:54:00.040Z,100939.97
2022-08-14T12:56:32.914Z,100930.63
2022-08-14T12:59:03.248Z,100916.66
2022-08-14T13:01:59.247Z,100937.03
2022-08-14T13:04:21.630Z,100917.56
2022-08-14T13:06:51.462Z,100909.84
2022-08-14T13:09:20.137Z,100914.13
2022-08-14T13:11:59.079Z,100912.03
2022-08-14T13:14:43.097Z,100896.22
2022-08-14T13:17:11.654Z,100911.28
2022-08-14T13:19:40.592Z,100912.78
2022-08-14T13:22:09.808Z,100907.66
2022-08-14T13:24:39.742Z,100902.47
2022-08-14T13:27:10.002Z,100902.34
2022-08-14T13:29:46.533Z,100908.97
2022-08-14T13:32:14.308Z,100901.47
2022-08-14T13:34:43.781Z,100901.59
2022-08-14T13:37:14.641Z,100896.28
2022-08-14T13:39:46.926Z,100894.44
2022-08-14T13:42:23.858Z,100895.47
2022-08-14T13:44:53.207Z,100893.69
2022-08-14T13:47:21.659Z,100898.19
2022-08-14T13:49:57.921Z,100883.09
2022-08-14T13:52:52.518Z,100879.31
2022-08-14T13:55:16.414Z,100871.66
2022-08-14T13:57:49.768Z,100870.38
2022-08-14T14:00:32.426Z,100877.13
2022-08-14T14:03:00.428Z,100861.69
2022-08-14T14:05:52.268Z,100855.59
2022-08-14T14:08:18.590Z,100851.69
2022-08-14T14:11:03.380Z,100842.13
2022-08-14T14:13:31.839Z,100841.50
2022-08-14T14:16:02.812Z,100836.75
2022-08-14T14:18:34.794Z,100834.31
2022-08-14T14:21:03.413Z,100832.75
2022-08-14T14:23:32.542Z,100827.38
2022-08-14T14:25:59.991Z,100826.78
2022-08-14T14:28:32.218Z,100832.72
2022-08-14T14:31:06.746Z,100832.19
2022-08-14T14:33:47.030Z,100830.94
2022-08-14T14:36:25.028Z,100808.72
2022-08-14T14:39:04.699Z,100805.31
2022-08-14T14:41:38.111Z,100806.19
2022-08-14T14:44:16.096Z,100802.03
2022-08-14T14:46:51.012Z,100808.84
2022-08-14T14:49:22.238Z,100808.72
2022-08-14T14:51:58.916Z,100807.63
2022-08-14T14:54:30.910Z,100795.41
2022-08-14T14:57:00.568Z,100791.22
2022-08-14T14:59:33.472Z,100782.47
2022-08-14T15:02:09.233Z,100785.94
2022-08-14T15:04:38.972Z,100784.31
2022-08-14T15:07:12.350Z,100773.50
2022-08-14T15:09:41.144Z,100780.97
2022-08-14T15:12:34.181Z,100777.63
2022-08-14T15:14:58.049Z,100771.44
2022-08-14T15:17:40.838Z,100773.22
2022-08-14T15:20:11.369Z,100764.78
2022-08-14T15:22:50.925Z,100774.28
2022-08-14T15:25:18.834Z,100762.69
2022-08-14T15:27:49.980Z,100767.78
2022-08-14T15:30:23.703Z,100766.88
2022-08-14T15:32:53.137Z,100758.31
2022-08-14T15:35:22.731Z,100764.19
2022-08-14T15:37:55.632Z,100757.59
2022-08-14T15:40:23.647Z,100754.81
2022-08-14T15:42:51.038Z,100753.63
2022-08-14T15:45:18.977Z,100754.38
2022-08-14T15:47:45.771Z,100758.75
2022-08-14T15:50:13.066Z,100764.25
2022-08-14T15:52:43.120Z,100756.75
2022-08-14T15:55:14.914Z,100754.13
2022-08-14T15:58:01.812Z,100761.44
2022-08-14T16:00:52.752Z,100759.97
2022-08-14T16:03:27.401Z,100753.06
2022-08-14T16:06:05.676Z,100761.38
2022-08-14T16:08:33.505Z,100760.97
2022-08-14T16:11:04.170Z,100753.06
2022-08-14T16:13:44.620Z,100745.97
2022-08-14T16:16:49.391Z,100747.94
2022-08-14T16:19:10.064Z,100748.41
2022-08-14T16:21:40.524Z,100733.97
2022-08-14T16:24:26.848Z,100744.47
2022-08-14T16:27:00.843Z,100744.72
2022-08-14T16:29:31.274Z,100745.09
2022-08-14T16:32:01.729Z,100738.22
2022-08-14T16:34:47.320Z,100729.03
2022-08-14T16:37:18.342Z,100722.63
2022-08-14T16:39:48.624Z,100730.63
2022-08-14T16:43:02.843Z,100728.56
2022-08-14T16:45:04.118Z,100724.94
2022-08-14T16:47:34.945Z,100722.63
2022-08-14T16:50:08.427Z,100719.47
2022-08-14T16:52:44.703Z,100713.03
2022-08-14T16:55:13.984Z,100712.19
2022-08-14T16:57:54.509Z,100707.19
2022-08-14T17:00:32.752Z,100699.38
2022-08-14T17:03:08.622Z,100697.50
2022-08-14T17:05:43.406Z,100696.03
2022-08-14T17:08:32.562Z,100687.94
2022-08-14T17:11:11.124Z,100692.66
2022-08-14T17:13:59.168Z,100686.31
2022-08-14T17:16:37.178Z,100680.22
2022-08-14T17:19:09.974Z,100676.84
2022-08-14T17:21:41.659Z,100676.34
2022-08-14T17:24:56.043Z,100679.03
2022-08-14T17:27:05.224Z,100678.91
2022-08-14T17:29:56.152Z,100682.28
2022-08-14T17:32:29.819Z,100681.81
2022-08-14T17:35:09.992Z,100679.09
2022-08-14T17:37:45.162Z,100680.81
2022-08-14T17:40:16.052Z,100675.22
2022-08-14T17:42:51.809Z,100680.97
2022-08-14T17:45:43.023Z,100675.72
2022-08-14T17:49:09.952Z,100691.91
2022-08-14T17:51:24.157Z,100682.47
2022-08-14T17:54:02.322Z,100681.41
2022-08-14T17:56:32.303Z,100674.50
2022-08-14T17:59:05.946Z,100676.00
2022-08-14T18:01:37.967Z,100674.22
2022-08-14T18:04:24.524Z,100678.28
2022-08-14T18:07:08.786Z,100685.69
2022-08-14T18:09:57.366Z,100688.34
2022-08-14T18:12:36.872Z,100695.06
2022-08-14T18:15:16.441Z,100696.38
2022-08-14T18:17:54.107Z,100692.59
2022-08-14T18:21:41.266Z,100707.56
2022-08-14T18:23:13.607Z,100709.53
2022-08-14T18:25:50.408Z,100723.03
2022-08-14T18:28:40.620Z,100736.44
2022-08-14T18:31:20.811Z,100739.59
2022-08-14T18:33:59.746Z,100748.00
2022-08-14T18:36:57.088Z,100767.16
2022-08-14T18:40:01.957Z,100776.09
2022-08-14T18:42:24.411Z,100788.84
2022-08-14T18:45:00.956Z,100802.16
2022-08-14T18:47:32.618Z,100814.84
2022-08-14T18:50:27.617Z,100830.69
2022-08-14T18:53:07.601Z,100842.31
2022-08-14T18:55:35.791Z,100857.56
2022-08-14T18:58:27.792Z,100867.72
2022-08-14T19:00:58.738Z,100879.16
2022-08-14T19:03:36.591Z,100889.59
2022-08-14T19:06:07.202Z,100894.13
2022-08-14T19:08:45.464Z,100898.91
2022-08-14T19:11:37.584Z,100912.44
2022-08-14T19:14:06.049Z,100917.94
2022-08-14T19:16:35.696Z,100921.63
2022-08-14T19:19:08.775Z,100931.44
2022-08-14T19:21:36.669Z,100939.69
2022-08-14T19:24:27.702Z,100958.41
2022-08-14T19:27:24.279Z,100982.72
2022-08-14T19:30:19.690Z,101001.88
2022-08-14T19:32:50.702Z,101024.84
2022-08-14T19:35:54.945Z,101036.59
2022-08-14T19:38:48.174Z,101058.16
2022-08-14T19:41:17.079Z,101070.59
2022-08-14T19:43:55.838Z,101081.44
2022-08-14T19:46:37.816Z,101088.78
2022-08-14T19:49:07.065Z,101096.22
2022-08-14T19:51:48.940Z,101110.63
2022-08-14T19:54:16.209Z,101119.50
2022-08-14T19:56:45.079Z,101137.78
2022-08-14T19:59:18.898Z,101146.22
2022-08-14T20:01:51.238Z,101158.16
2022-08-14T20:04:45.086Z,101157.06
2022-08-14T20:07:27.210Z,101167.66
2022-08-14T20:11:08.262Z,101162.16
2022-08-14T20:13:14.540Z,101162.16
2022-08-14T20:15:50.754Z,101168.63
2022-08-14T20:18:48.990Z,101165.47
2022-08-14T20:21:13.683Z,101172.03
2022-08-14T20:23:41.861Z,101175.47
2022-08-14T20:26:30.851Z,101189.72
2022-08-14T20:29:05.088Z,101193.31
2022-08-14T20:31:36.378Z,101205.25
2022-08-14T20:34:24.337Z,101206.22
2022-08-14T20:37:04.716Z,101213.91
2022-08-14T20:39:54.649Z,101239.16
2022-08-14T20:42:43.564Z,101243.16
2022-08-14T20:45:17.975Z,101263.59
2022-08-14T20:47:50.655Z,101274.56
2022-08-14T20:50:28.964Z,101294.03
2022-08-14T20:52:58.230Z,101316.91
2022-08-14T20:55:32.381Z,101309.50
2022-08-14T20:58:09.997Z,101288.38
2022-08-14T21:01:11.354Z,101262.72
2022-08-14T21:03:56.400Z,101248.56
2022-08-14T21:07:22.790Z,101231.97
2022-08-14T21:10:05.202Z,101210.34
2022-08-14T21:12:34.785Z,101187.63
2022-08-14T21:14:58.510Z,101173.38
2022-08-14T21:17:25.480Z,101159.97
2022-08-14T21:19:53.903Z,101138.81
2022-08-14T21:22:21.215Z,101128.25
2022-08-14T21:24:48.415Z,101118.16
2022-08-14T21:27:20.288Z,101096.31
2022-08-14T21:29:55.382Z,101080.84
2022-08-14T21:32:47.219Z,101074.06
2022-08-14T21:35:24.392Z,101076.72
2022-08-14T21:37:52.412Z,101063.34
2022-08-14T21:40:40.753Z,101045.94
2022-08-14T21:43:17.167Z,101028.31
2022-08-14T21:45:53.646Z,101014.69
2022-08-14T21:48:29.868Z,101003.63
2022-08-14T21:51:01.746Z,100999.13
2022-08-14T21:53:58.380Z,100984.66
2022-08-14T21:56:37.230Z,100988.06
2022-08-14T21:59:09.692Z,100977.63
2022-08-14T22:02:01.218Z,100990.63
2022-08-14T22:04:33.780Z,100989.91
2022-08-14T22:07:07.343Z,100981.13
2022-08-14T22:09:36.576Z,100978.81
2022-08-14T22:12:06.781Z,100979.66
2022-08-14T22:14:43.767Z,100981.72
2022-08-14T22:17:16.299Z,100991.72
2022-08-14T22:19:54.994Z,100991.09
2022-08-14T22:22:26.004Z,101003.97
2022-08-14T22:25:00.413Z,101003.22
2022-08-14T22:27:32.392Z,101011.34
2022-08-14T22:30:01.085Z,101013.91
2022-08-14T22:32:56.432Z,101006.88
2022-08-14T22:35:17.072Z,100998.63
2022-08-14T22:37:44.719Z,100996.78
2022-08-14T22:40:43.844Z,100989.63
2022-08-14T22:43:07.985Z,100981.34
2022-08-14T22:45:37.699Z,100983.81
2022-08-14T22:48:10.728Z,100977.72
2022-08-14T22:50:48.990Z,100972.22
2022-08-14T22:53:16.021Z,100962.63
2022-08-14T22:55:43.418Z,100960.81
2022-08-14T22:58:11.429Z,100948.16
2022-08-14T23:00:45.599Z,100938.47
2022-08-14T23:03:17.184Z,100943.19
2022-08-14T23:05:52.661Z,100942.34
2022-08-14T23:08:59.425Z,100950.72
2022-08-14T23:11:10.046Z,100945.38
2022-08-14T23:13:39.236Z,100945.72
2022-08-14T23:16:08.394Z,100950.31
2022-08-14T23:18:38.872Z,100948.84
2022-08-14T23:21:10.415Z,100956.38
2022-08-14T23:23:41.472Z,100966.09
2022-08-14T23:26:47.266Z,100964.75
2022-08-14T23:28:58.352Z,100966.84
2022-08-14T23:31:36.107Z,100985.66
2022-08-14T23:34:07.105Z,100988.56
2022-08-14T23:36:37.939Z,101000.44
2022-08-14T23:39:24.674Z,101011.72
2022-08-14T23:42:04.225Z,101018.38
2022-08-14T23:44:34.970Z,101026.72
2022-08-14T23:47:12.251Z,101028.16
2022-08-14T23:50:03.863Z,101045.25
2022-08-14T23:53:04.158Z,101040.38
2022-08-14T23:55:29.557Z,101047.53
2022-08-14T23:57:57.812Z,101047.63
